Time;durP1;ratioP1;P1;durP2;ratioP2;P2;SDS_P1;SDS_P2;PMS_P1;PMS_P2;Temp;Humidity;BMP_temperature;BMP_pressure;BME280_temperature;BME280_humidity;BME280_pressure;Samples;Min_cycle;Max_cycle;Signal;HPM_P1;HPM_P2
2023/01/31 00:01:33;;;;;;;37.08;5.03;;;3.50;99.90;;;;;;5056577;28;20021;-72
2023/01/31 00:04:01;;;;;;;49.38;7.35;;;3.40;99.90;;;;;;5056893;28;20044;-73
2023/01/31 00:06:37;;;;;;;39.85;4.68;;;3.50;99.90;;;;;;5057044;28;20025;-73
2023/01/31 00:09:04;;;;;;;30.58;4.38;;;3.40;99.90;;;;;;5057483;28;20020;-73
2023/01/31 00:11:30;;;;;;;45.35;6.53;;;3.40;99.90;;;;;;5057020;28;20021;-72
2023/01/31 00:14:00;;;;;;;38.03;5.47;;;3.40;99.90;;;;;;5057029;28;20033;-72
2023/01/31 00:16:26;;;;;;;44.95;5.43;;;3.40;99.90;;;;;;5057266;28;20036;-73
2023/01/31 00:18:52;;;;;;;46.90;5.13;;;3.40;99.90;;;;;;5056990;28;20055;-72
2023/01/31 00:21:22;;;;;;;36.28;5.10;;;3.40;99.90;;;;;;5056822;28;20479;-73
2023/01/31 00:23:48;;;;;;;46.25;6.05;;;3.40;99.90;;;;;;5056642;28;20075;-72
2023/01/31 00:26:26;;;;;;;53.50;5.55;;;3.40;99.90;;;;;;5056764;28;20475;-72
2023/01/31 00:28:53;;;;;;;53.78;7.47;;;3.50;99.90;;;;;;5056994;28;20101;-73
2023/01/31 00:31:20;;;;;;;57.03;6.57;;;3.50;99.90;;;;;;5056813;28;20025;-72
2023/01/31 00:33:47;;;;;;;40.28;4.38;;;3.60;99.90;;;;;;5056513;28;20102;-73
2023/01/31 00:36:15;;;;;;;51.60;6.13;;;3.60;99.90;;;;;;5056933;28;20067;-72
2023/01/31 00:38:41;;;;;;;45.83;6.07;;;3.70;99.90;;;;;;5056833;28;20483;-72
2023/01/31 00:41:07;;;;;;;36.50;4.57;;;3.70;99.90;;;;;;5056700;28;20090;-73
2023/01/31 00:43:34;;;;;;;37.88;5.15;;;3.70;99.90;;;;;;5056427;28;20037;-72
2023/01/31 00:46:00;;;;;;;48.58;5.10;;;3.70;99.90;;;;;;5056750;28;20025;-73
2023/01/31 00:48:26;;;;;;;36.05;5.78;;;3.60;99.90;;;;;;5056960;28;20112;-73
2023/01/31 00:50:52;;;;;;;68.78;7.65;;;3.60;99.90;;;;;;5056486;28;20071;-73
2023/01/31 00:53:22;;;;;;;45.83;5.00;;;3.60;99.90;;;;;;5056485;28;20029;-72
2023/01/31 00:55:49;;;;;;;45.00;6.72;;;3.60;99.90;;;;;;5056590;28;20025;-73
2023/01/31 00:58:14;;;;;;;51.80;6.05;;;3.70;99.90;;;;;;5056429;28;20043;-73
2023/01/31 01:00:40;;;;;;;47.90;5.45;;;3.70;99.90;;;;;;5056503;28;20112;-73
2023/01/31 01:03:06;;;;;;;32.20;6.00;;;3.70;99.90;;;;;;5054929;28;20029;-73
2023/01/31 01:05:31;;;;;;;57.55;6.20;;;3.80;99.90;;;;;;5056355;28;20505;-74
2023/01/31 01:07:57;;;;;;;33.28;5.32;;;3.70;99.90;;;;;;5056300;28;20021;-74
2023/01/31 01:10:23;;;;;;;35.20;6.20;;;3.70;99.90;;;;;;5056542;28;20027;-73
2023/01/31 01:12:48;;;;;;;40.03;5.53;;;3.60;99.90;;;;;;5054478;28;20036;-73
2023/01/31 01:15:14;;;;;;;47.65;5.68;;;3.60;99.90;;;;;;5056065;28;20028;-73
2023/01/31 01:17:39;;;;;;;49.15;6.20;;;3.60;99.90;;;;;;5056336;28;20025;-73
2023/01/31 01:20:07;;;;;;;44.00;4.90;;;3.60;99.90;;;;;;5056404;28;20372;-73
2023/01/31 01:22:33;;;;;;;54.10;6.32;;;3.70;99.90;;;;;;5055866;28;20028;-73
2023/01/31 01:24:59;;;;;;;45.13;6.32;;;3.70;99.90;;;;;;5055905;28;20128;-73
2023/01/31 01:27:26;;;;;;;38.60;6.22;;;3.70;99.90;;;;;;5055956;28;20067;-73
2023/01/31 01:29:52;;;;;;;38.90;4.63;;;3.70;99.90;;;;;;5055728;28;20360;-73
2023/01/31 01:32:17;;;;;;;37.15;5.35;;;3.80;99.90;;;;;;5056103;28;20108;-73
2023/01/31 01:34:43;;;;;;;51.67;5.30;;;3.70;99.90;;;;;;5056015;28;20037;-73
2023/01/31 01:37:10;;;;;;;45.00;7.15;;;3.70;99.90;;;;;;5055463;28;20033;-73
2023/01/31 01:39:37;;;;;;;48.85;5.20;;;3.60;99.90;;;;;;5055839;28;20064;-71
2023/01/31 01:42:03;;;;;;;55.50;5.85;;;3.60;99.90;;;;;;5055456;28;20103;-71
2023/01/31 01:44:48;;;;;;;37.92;7.00;;;3.60;99.90;;;;;;5054999;28;20029;-71
2023/01/31 01:47:41;;;;;;;45.17;6.65;;;3.60;99.90;;;;;;5055678;28;20101;-70
2023/01/31 01:50:21;;;;;;;39.53;4.55;;;3.60;99.90;;;;;;5055763;28;20154;-70
2023/01/31 01:52:51;;;;;;;38.80;6.00;;;3.60;99.90;;;;;;5055742;28;20050;-71
2023/01/31 01:55:29;;;;;;;40.47;7.00;;;3.50;99.90;;;;;;5055178;28;20106;-71
2023/01/31 01:58:05;;;;;;;37.25;5.05;;;3.50;99.90;;;;;;5055250;28;20379;-71
2023/01/31 02:00:32;;;;;;;33.90;5.15;;;3.40;99.90;;;;;;5054702;28;20021;-71
2023/01/31 02:03:00;;;;;;;39.70;5.25;;;3.40;99.90;;;;;;5054898;28;20035;-71
2023/01/31 02:05:31;;;;;;;42.10;5.03;;;3.40;99.90;;;;;;5055273;28;20096;-71
2023/01/31 02:07:58;;;;;;;29.23;4.22;;;3.40;99.90;;;;;;5055342;28;20052;-71
2023/01/31 02:10:56;;;;;;;37.60;4.70;;;3.40;99.90;;;;;;5054845;28;20032;-71
2023/01/31 02:13:22;;;;;;;56.40;5.43;;;3.40;99.90;;;;;;5033473;28;20513;-71
2023/01/31 02:15:47;;;;;;;37.60;5.90;;;3.50;99.90;;;;;;5055378;28;20108;-71
2023/01/31 02:18:14;;;;;;;65.13;5.45;;;3.40;99.90;;;;;;5054505;28;20017;-71
2023/01/31 02:21:14;;;;;;;36.10;4.93;;;3.50;99.90;;;;;;5054604;28;20063;-71
2023/01/31 02:24:17;;;;;;;49.45;6.65;;;3.50;99.90;;;;;;5054103;28;20059;-71
2023/01/31 02:26:51;;;;;;;34.70;6.47;;;3.60;99.90;;;;;;5054691;28;20098;-71
2023/01/31 02:29:26;;;;;;;37.47;5.60;;;3.60;99.90;;;;;;5051426;28;20028;-71
2023/01/31 02:32:35;;;;;;;40.38;5.85;;;3.50;99.90;;;;;;5034821;28;20021;-71
2023/01/31 02:35:40;;;;;;;40.75;5.32;;;3.40;99.90;;;;;;5035405;28;20040;-71
2023/01/31 02:38:08;;;;;;;;;;;3.40;99.90;;;;;;5031566;28;20085;-71
2023/01/31 02:40:53;;;;;;;40.90;5.82;;;3.50;99.90;;;;;;5054011;28;20324;-71
2023/01/31 02:46:56;;;;;;;40.13;5.13;;;3.40;99.90;;;;;;5053452;28;20036;-70
2023/01/31 02:49:33;;;;;;;41.72;6.43;;;3.60;99.90;;;;;;5052737;28;20074;-71
2023/01/31 02:52:16;;;;;;;46.35;5.32;;;3.80;99.90;;;;;;5047744;28;20101;-71
2023/01/31 02:57:49;;;;;;;31.50;5.85;;;3.80;99.90;;;;;;5034214;28;20036;-70
2023/01/31 03:00:16;;;;;;;33.03;4.93;;;3.80;99.90;;;;;;5033635;28;20373;-71
2023/01/31 03:02:41;;;;;;;81.68;15.75;;;3.80;99.90;;;;;;5033916;28;20029;-71
2023/01/31 03:05:11;;;;;;;49.20;10.98;;;3.80;99.90;;;;;;5033439;28;20476;-71
2023/01/31 03:07:38;;;;;;;46.38;7.03;;;3.80;99.90;;;;;;5042300;28;20020;-71
2023/01/31 03:10:41;;;;;;;30.08;6.15;;;3.90;99.90;;;;;;5053766;28;20035;-71
2023/01/31 03:13:19;;;;;;;31.83;4.75;;;4.00;99.90;;;;;;5053281;28;20066;-71
2023/01/31 03:19:33;;;;;;;38.13;4.13;;;4.00;99.90;;;;;;5053530;28;20104;-71
2023/01/31 03:22:15;;;;;;;36.70;5.77;;;4.00;99.90;;;;;;5032344;28;20094;-72
2023/01/31 03:24:44;;;;;;;33.72;4.82;;;3.90;99.90;;;;;;5053233;28;20025;-70
2023/01/31 03:27:10;;;;;;;33.25;4.13;;;3.90;99.90;;;;;;5053206;28;20160;-70
2023/01/31 03:29:37;;;;;;;37.00;5.05;;;3.90;99.90;;;;;;5053128;28;20087;-71
2023/01/31 03:32:24;;;;;;;31.73;5.03;;;3.90;99.90;;;;;;5053467;28;20497;-70
2023/01/31 03:34:51;;;;;;;35.28;4.95;;;3.90;99.90;;;;;;5032286;28;20041;-71
2023/01/31 03:37:57;;;;;;;41.67;5.20;;;3.90;99.90;;;;;;5033388;28;20036;-71
2023/01/31 03:40:45;;;;;;;47.13;5.18;;;3.90;99.90;;;;;;5033609;28;20021;-70
2023/01/31 03:43:20;;;;;;;22.15;3.60;;;4.00;99.90;;;;;;5033300;28;20030;-71
2023/01/31 03:45:56;;;;;;;38.38;5.30;;;4.00;99.90;;;;;;5053428;28;20021;-70
2023/01/31 03:48:27;;;;;;;37.75;7.47;;;3.90;99.90;;;;;;5053301;28;20031;-70
2023/01/31 03:50:57;;;;;;;60.20;9.90;;;3.90;99.90;;;;;;5053240;28;20029;-70
2023/01/31 03:53:33;;;;;;;34.40;5.00;;;3.90;99.90;;;;;;5052788;28;20100;-71
2023/01/31 03:56:05;;;;;;;34.63;3.83;;;3.90;99.90;;;;;;5053237;28;20049;-70
2023/01/31 03:58:35;;;;;;;37.88;3.20;;;4.00;99.90;;;;;;5053170;28;20390;-70
2023/01/31 04:01:06;;;;;;;26.98;3.92;;;3.90;99.90;;;;;;5068235;28;20309;-71
2023/01/31 04:03:38;;;;;;;43.65;5.13;;;3.90;99.90;;;;;;5052623;28;20061;-72
2023/01/31 04:06:04;;;;;;;51.60;8.63;;;3.90;99.90;;;;;;5052983;28;20067;-71
2023/01/31 04:08:31;;;;;;;30.95;5.60;;;4.00;99.90;;;;;;5053144;28;20059;-71
2023/01/31 04:10:58;;;;;;;41.42;5.18;;;4.00;99.90;;;;;;5053068;28;20075;-70
2023/01/31 04:13:24;;;;;;;36.90;5.20;;;4.00;99.90;;;;;;5052456;28;20108;-71
2023/01/31 04:15:49;;;;;;;49.20;5.32;;;4.00;99.90;;;;;;5052884;28;20052;-70
2023/01/31 04:18:15;;;;;;;35.45;6.25;;;4.00;99.90;;;;;;5052657;28;20033;-71
2023/01/31 04:20:40;;;;;;;40.63;5.18;;;4.00;99.90;;;;;;5052618;28;20021;-70
2023/01/31 04:23:06;;;;;;;35.00;4.80;;;4.10;99.90;;;;;;5052835;28;20025;-71
2023/01/31 04:25:31;;;;;;;33.95;4.28;;;4.10;99.90;;;;;;5052697;28;20152;-70
2023/01/31 04:27:57;;;;;;;53.38;6.32;;;4.20;99.90;;;;;;5052751;28;20143;-71
2023/01/31 04:30:22;;;;;;;29.90;4.03;;;4.20;99.90;;;;;;5053415;28;20021;-70
2023/01/31 04:32:48;;;;;;;37.22;4.38;;;4.20;99.90;;;;;;5052833;28;20075;-71
2023/01/31 04:35:14;;;;;;;33.45;4.88;;;4.30;99.90;;;;;;5052122;28;20041;-71
2023/01/31 04:37:39;;;;;;;54.17;4.45;;;4.30;99.90;;;;;;5052573;28;20021;-71
2023/01/31 04:40:06;;;;;;;39.20;6.60;;;4.30;99.90;;;;;;5053243;28;20104;-71
2023/01/31 04:42:31;;;;;;;39.72;5.40;;;4.30;99.90;;;;;;5053960;28;20029;-71
2023/01/31 04:44:57;;;;;;;25.73;4.00;;;4.40;99.90;;;;;;5053003;28;20029;-71
2023/01/31 04:47:22;;;;;;;29.65;4.22;;;4.40;99.90;;;;;;5051691;28;20075;-71
2023/01/31 04:49:48;;;;;;;53.20;5.35;;;4.50;99.90;;;;;;5036408;28;20041;-71
2023/01/31 04:52:13;;;;;;;44.40;5.88;;;4.40;99.90;;;;;;5035909;28;20092;-71
2023/01/31 04:54:40;;;;;;;45.50;4.25;;;4.50;99.90;;;;;;5036137;28;20057;-70
2023/01/31 04:57:06;;;;;;;44.05;4.47;;;4.50;99.90;;;;;;5036171;28;20022;-71
2023/01/31 04:59:31;;;;;;;38.42;5.65;;;4.50;99.90;;;;;;5036081;28;20391;-71
2023/01/31 05:01:57;;;;;;;29.92;4.13;;;4.50;99.90;;;;;;5059012;28;20040;-71
2023/01/31 05:04:24;;;;;;;42.60;4.80;;;4.60;99.90;;;;;;5055902;28;20029;-71
2023/01/31 05:06:49;;;;;;;33.35;3.70;;;4.60;99.90;;;;;;5055998;28;20024;-70
2023/01/31 05:09:16;;;;;;;26.10;4.75;;;4.50;99.90;;;;;;5056160;28;20021;-71
2023/01/31 05:11:42;;;;;;;29.95;3.97;;;4.50;99.90;;;;;;5054350;28;20084;-71
2023/01/31 05:14:08;;;;;;;35.95;5.10;;;4.50;99.90;;;;;;5055909;28;20029;-71
2023/01/31 05:16:33;;;;;;;50.67;5.90;;;4.50;99.90;;;;;;5056141;28;20463;-71
2023/01/31 05:19:00;;;;;;;35.20;5.45;;;4.50;99.90;;;;;;5055511;28;20027;-71
2023/01/31 05:21:26;;;;;;;34.97;4.05;;;4.50;99.90;;;;;;5055404;28;20053;-71
2023/01/31 05:23:51;;;;;;;27.73;4.63;;;4.50;99.90;;;;;;5055238;28;20368;-71
2023/01/31 05:26:17;;;;;;;24.35;3.70;;;4.40;99.90;;;;;;5060068;28;20036;-71
2023/01/31 05:28:42;;;;;;;49.35;5.95;;;4.50;99.90;;;;;;5035670;28;20021;-71
2023/01/31 05:31:08;;;;;;;35.20;5.05;;;4.50;99.90;;;;;;5041502;28;20119;-71
2023/01/31 05:33:34;;;;;;;50.40;5.05;;;4.50;99.90;;;;;;5055118;28;20059;-71
2023/01/31 05:36:00;;;;;;;60.65;7.10;;;4.60;99.90;;;;;;5054854;28;20048;-71
2023/01/31 05:38:26;;;;;;;50.65;6.60;;;4.60;99.90;;;;;;5055516;28;20487;-71
2023/01/31 05:40:52;;;;;;;46.80;4.97;;;4.60;99.90;;;;;;5055250;28;20036;-71
2023/01/31 05:43:18;;;;;;;36.28;5.30;;;4.60;99.90;;;;;;5055196;28;20025;-71
2023/01/31 05:45:43;;;;;;;65.55;7.50;;;4.70;99.90;;;;;;5054906;28;20029;-71
2023/01/31 05:48:09;;;;;;;51.30;6.28;;;4.70;99.90;;;;;;5054994;28;20043;-71
2023/01/31 05:50:34;;;;;;;57.47;6.93;;;4.70;99.90;;;;;;5055260;28;20494;-71
2023/01/31 05:53:02;;;;;;;49.55;5.18;;;4.80;99.90;;;;;;5054840;28;20025;-71
2023/01/31 05:55:28;;;;;;;54.55;6.03;;;4.90;99.90;;;;;;5055433;28;20471;-71
2023/01/31 05:57:54;;;;;;;48.15;5.82;;;4.90;99.90;;;;;;5053720;28;20033;-71
2023/01/31 06:00:20;;;;;;;49.38;7.70;;;4.90;99.90;;;;;;5054878;28;20032;-71
2023/01/31 06:02:46;;;;;;;64.72;8.20;;;4.90;99.90;;;;;;5054925;28;20083;-71
2023/01/31 06:05:12;;;;;;;42.30;5.78;;;5.00;99.90;;;;;;5054514;28;20416;-71
2023/01/31 06:07:39;;;;;;;41.97;4.97;;;5.00;99.90;;;;;;5037000;28;20026;-70
2023/01/31 06:10:06;;;;;;;36.28;5.57;;;5.00;99.90;;;;;;5047267;28;20022;-71
2023/01/31 06:12:31;;;;;;;52.30;5.95;;;5.10;99.90;;;;;;5054404;28;20398;-71
2023/01/31 06:14:57;;;;;;;59.92;6.85;;;5.10;99.90;;;;;;5054408;28;20025;-71
2023/01/31 06:17:22;;;;;;;68.28;6.45;;;5.10;99.90;;;;;;5053163;28;20033;-71
2023/01/31 06:19:48;;;;;;;49.55;4.97;;;5.10;99.90;;;;;;5054614;28;20056;-70
2023/01/31 06:22:14;;;;;;;55.13;5.68;;;5.10;99.90;;;;;;5054637;28;20033;-72
2023/01/31 06:24:39;;;;;;;60.65;5.00;;;5.10;99.90;;;;;;5054197;28;20037;-71
2023/01/31 06:27:05;;;;;;;49.35;5.53;;;5.10;99.90;;;;;;5054488;28;20029;-70
2023/01/31 06:29:30;;;;;;;42.15;6.72;;;5.10;99.90;;;;;;5054015;28;20047;-71
2023/01/31 06:31:56;;;;;;;66.15;6.10;;;5.20;99.90;;;;;;5054428;28;20025;-70
2023/01/31 06:34:21;;;;;;;43.63;5.43;;;5.20;99.90;;;;;;5054109;28;20522;-71
2023/01/31 06:36:47;;;;;;;54.45;7.10;;;5.10;99.90;;;;;;5054012;28;20020;-71
2023/01/31 06:39:13;;;;;;;58.35;6.43;;;5.20;99.90;;;;;;5054206;28;20025;-72
2023/01/31 06:41:39;;;;;;;54.28;5.80;;;5.20;99.90;;;;;;5053853;28;20431;-72
2023/01/31 06:44:04;;;;;;;54.53;6.95;;;5.30;99.90;;;;;;5053766;28;20067;-71
2023/01/31 06:46:30;;;;;;;47.42;8.30;;;5.30;99.90;;;;;;5053943;28;20049;-71
2023/01/31 06:48:56;;;;;;;55.85;6.90;;;5.40;99.90;;;;;;5054232;28;20071;-70
2023/01/31 06:51:21;;;;;;;44.95;5.72;;;5.40;99.90;;;;;;5053829;28;20393;-71
2023/01/31 06:53:47;;;;;;;51.00;6.13;;;5.40;99.90;;;;;;5053917;28;20027;-71
2023/01/31 06:56:12;;;;;;;54.90;5.55;;;5.40;99.90;;;;;;5046959;28;20391;-71
2023/01/31 06:58:38;;;;;;;46.45;6.65;;;5.40;99.90;;;;;;5033902;28;20104;-71
2023/01/31 07:01:06;;;;;;;53.33;6.05;;;5.30;99.90;;;;;;5033555;28;20021;-71
2023/01/31 07:03:31;;;;;;;49.70;6.15;;;5.40;99.90;;;;;;5044425;28;20033;-71
2023/01/31 07:05:57;;;;;;;70.95;6.43;;;5.40;99.90;;;;;;5034159;28;20113;-71
2023/01/31 07:08:22;;;;;;;46.17;6.93;;;5.30;99.90;;;;;;5050346;28;20017;-71
2023/01/31 07:10:48;;;;;;;52.60;7.07;;;5.40;99.90;;;;;;5051647;28;20072;-71
2023/01/31 07:13:14;;;;;;;48.65;6.75;;;5.30;99.90;;;;;;5053002;28;20467;-71
2023/01/31 07:15:40;;;;;;;59.50;7.43;;;5.30;99.90;;;;;;5053636;28;20025;-71
2023/01/31 07:18:06;;;;;;;46.85;5.75;;;5.20;99.90;;;;;;5053249;28;20025;-70
2023/01/31 07:20:31;;;;;;;56.53;6.38;;;5.10;99.90;;;;;;5053272;28;20079;-70
2023/01/31 07:22:57;;;;;;;57.47;9.10;;;5.10;99.90;;;;;;5053559;28;20440;-70
2023/01/31 07:25:24;;;;;;;74.18;10.52;;;5.10;99.90;;;;;;5053068;28;20044;-69
2023/01/31 07:27:50;;;;;;;65.95;8.15;;;5.00;99.90;;;;;;5053389;28;20100;-69
2023/01/31 07:30:16;;;;;;;69.78;7.30;;;5.00;99.90;;;;;;5045028;28;20045;-68
2023/01/31 07:32:41;;;;;;;64.40;7.25;;;5.00;99.90;;;;;;5042047;28;20013;-69
2023/01/31 07:35:07;;;;;;;69.90;8.05;;;5.00;99.90;;;;;;5050629;28;20029;-69
2023/01/31 07:37:33;;;;;;;68.10;9.13;;;5.10;99.90;;;;;;5045111;28;20108;-70
2023/01/31 07:39:58;;;;;;;74.85;7.68;;;5.10;99.90;;;;;;5049238;28;20071;-69
2023/01/31 07:42:24;;;;;;;83.88;9.38;;;5.10;99.90;;;;;;5047736;28;20029;-68
2023/01/31 07:44:50;;;;;;;63.00;9.02;;;5.10;99.90;;;;;;5045990;28;20040;-68
2023/01/31 07:47:15;;;;;;;62.53;6.50;;;5.10;99.90;;;;;;5049109;28;20062;-68
2023/01/31 07:49:41;;;;;;;54.90;8.85;;;5.10;99.90;;;;;;5049378;28;20052;-69
2023/01/31 07:52:06;;;;;;;59.45;7.25;;;5.10;99.90;;;;;;5051374;28;20032;-69
2023/01/31 07:54:32;;;;;;;55.10;6.53;;;5.10;99.90;;;;;;5049182;28;20376;-69
2023/01/31 07:56:57;;;;;;;67.30;7.97;;;5.10;99.90;;;;;;5045498;28;20154;-69
2023/01/31 07:59:23;;;;;;;59.70;7.70;;;5.10;99.90;;;;;;5049743;28;20052;-69
2023/01/31 08:04:33;;;;;;;77.28;7.90;;;5.10;99.90;;;;;;5039896;28;20399;-69
2023/01/31 08:07:01;;;;;;;64.93;8.18;;;5.20;99.90;;;;;;5052851;28;20021;-70
2023/01/31 08:09:27;;;;;;;71.30;10.10;;;5.30;99.90;;;;;;5053102;28;20013;-69
2023/01/31 08:11:53;;;;;;;62.25;10.23;;;5.20;99.90;;;;;;5052560;28;20032;-69
2023/01/31 08:14:24;;;;;;;69.47;7.55;;;5.30;99.90;;;;;;5053058;28;20040;-69
2023/01/31 08:16:50;;;;;;;101.97;10.60;;;5.30;99.90;;;;;;5053331;28;20033;-69
2023/01/31 08:19:15;;;;;;;67.07;10.02;;;5.30;99.90;;;;;;5052641;28;20048;-69
2023/01/31 08:21:41;;;;;;;91.70;11.30;;;5.30;99.90;;;;;;5054580;28;20025;-69
2023/01/31 08:24:07;;;;;;;84.95;11.05;;;5.30;99.90;;;;;;5056360;28;20454;-69
2023/01/31 08:26:33;;;;;;;83.03;11.07;;;5.30;99.90;;;;;;5056247;28;20437;-69
2023/01/31 08:28:58;;;;;;;89.25;10.85;;;5.30;99.90;;;;;;5056662;28;20033;-69
2023/01/31 08:31:26;;;;;;;92.43;9.65;;;5.30;99.90;;;;;;5056490;28;20455;-69
2023/01/31 08:33:52;;;;;;;72.38;11.93;;;5.30;99.90;;;;;;5055967;28;20081;-69
2023/01/31 08:36:26;;;;;;;86.63;11.85;;;5.30;99.90;;;;;;5056296;28;20128;-69
2023/01/31 08:38:52;;;;;;;57.30;8.70;;;5.30;99.90;;;;;;5056701;28;20047;-69
2023/01/31 08:41:19;;;;;;;73.05;8.93;;;5.20;99.90;;;;;;5056178;28;20025;-69
2023/01/31 08:43:47;;;;;;;80.13;8.82;;;5.30;99.90;;;;;;5056362;28;20075;-69
2023/01/31 08:46:13;;;;;;;58.63;9.05;;;5.20;99.90;;;;;;5056507;28;20017;-69
2023/01/31 08:48:40;;;;;;;68.07;9.30;;;5.20;99.90;;;;;;5056120;28;20032;-69
2023/01/31 08:51:07;;;;;;;77.13;10.48;;;5.20;99.90;;;;;;5056154;28;20013;-69
2023/01/31 08:53:35;;;;;;;64.85;9.63;;;5.20;99.90;;;;;;5055776;28;20035;-69
2023/01/31 08:56:04;;;;;;;68.72;10.00;;;5.30;99.90;;;;;;5056387;28;20033;-69
2023/01/31 08:58:33;;;;;;;85.60;9.90;;;5.30;99.90;;;;;;5055900;28;20049;-69
2023/01/31 09:01:04;;;;;;;67.35;10.27;;;5.40;99.90;;;;;;5053946;28;20040;-69
2023/01/31 09:03:30;;;;;;;67.70;9.02;;;5.40;99.90;;;;;;5055581;28;20041;-69
2023/01/31 09:06:03;;;;;;;74.18;8.98;;;5.50;99.90;;;;;;5055987;28;20025;-69
2023/01/31 09:08:29;;;;;;;;;;;5.40;99.90;;;;;;5053430;28;20116;-69
2023/01/31 09:10:56;;;;;;;57.03;9.68;;;5.50;99.90;;;;;;5044177;28;19947;-69
2023/01/31 09:13:22;;;;;;;66.70;9.15;;;5.50;99.90;;;;;;5048964;28;20024;-69
2023/01/31 09:16:04;;;;;;;72.30;9.98;;;5.50;99.90;;;;;;5047055;28;20084;-69
2023/01/31 09:18:32;;;;;;;71.10;8.95;;;5.60;99.90;;;;;;5052093;28;20021;-69
2023/01/31 09:21:07;;;;;;;65.25;9.20;;;5.60;99.90;;;;;;5049357;28;20257;-69
2023/01/31 09:23:32;;;;;;;90.32;24.45;;;5.60;99.90;;;;;;5039317;28;20111;-69
2023/01/31 09:25:58;;;;;;;99.50;22.17;;;5.60;99.90;;;;;;5050808;28;20101;-69
2023/01/31 09:28:24;;;;;;;64.40;14.48;;;5.70;99.90;;;;;;5050998;28;20021;-69
2023/01/31 09:30:53;;;;;;;76.32;15.10;;;5.70;99.90;;;;;;5044911;28;20030;-69
2023/01/31 09:33:21;;;;;;;62.30;10.15;;;5.70;99.90;;;;;;5051773;28;20032;-69
2023/01/31 09:36:01;;;;;;;73.95;10.13;;;5.70;99.90;;;;;;5050965;28;20025;-69
2023/01/31 09:38:27;;;;;;;80.88;14.02;;;5.70;99.90;;;;;;5046580;28;20013;-69
2023/01/31 09:40:55;;;;;;;71.55;10.50;;;5.70;99.90;;;;;;5051563;28;20028;-70
2023/01/31 09:43:24;;;;;;;69.57;11.45;;;5.70;99.90;;;;;;5050613;28;20017;-69
2023/01/31 09:45:53;;;;;;;67.28;12.40;;;5.70;99.90;;;;;;5046393;28;20021;-69
2023/01/31 09:48:22;;;;;;;75.25;14.48;;;5.70;99.90;;;;;;5048906;28;20021;-69
2023/01/31 09:50:50;;;;;;;79.65;14.15;;;5.70;99.90;;;;;;5050123;28;20029;-70
2023/01/31 09:53:20;;;;;;;75.70;12.52;;;5.80;99.90;;;;;;5044514;28;20032;-70
2023/01/31 09:56:10;;;;;;;85.68;13.45;;;5.80;99.90;;;;;;5040909;28;20020;-71
2023/01/31 09:58:57;;;;;;;75.43;10.43;;;5.80;99.90;;;;;;5048115;28;20495;-69
2023/01/31 10:01:49;;;;;;;65.10;9.85;;;5.80;99.90;;;;;;5051477;28;20032;-69
2023/01/31 10:04:36;;;;;;;73.18;10.40;;;5.80;99.90;;;;;;5050383;28;20071;-69
2023/01/31 10:07:13;;;;;;;59.03;9.07;;;5.80;99.90;;;;;;5048339;28;20051;-69
2023/01/31 10:09:47;;;;;;;63.28;12.75;;;5.80;99.90;;;;;;5044942;28;20052;-69
2023/01/31 10:12:21;;;;;;;67.05;10.23;;;5.80;99.90;;;;;;5052254;28;20033;-69
2023/01/31 10:14:53;;;;;;;71.60;11.18;;;5.90;99.90;;;;;;5050568;28;20032;-69
2023/01/31 10:17:24;;;;;;;69.88;9.00;;;5.90;99.90;;;;;;5049494;28;20174;-69
2023/01/31 10:20:18;;;;;;;62.78;9.85;;;5.90;99.90;;;;;;5053182;28;20391;-69
2023/01/31 10:22:59;;;;;;;55.95;8.85;;;5.90;99.90;;;;;;5047209;28;20484;-69
2023/01/31 10:25:33;;;;;;;54.45;8.93;;;6.00;99.90;;;;;;5042026;28;20036;-69
2023/01/31 10:28:14;;;;;;;56.25;8.75;;;6.00;99.90;;;;;;5051811;28;20109;-70
2023/01/31 10:31:09;;;;;;;58.95;11.10;;;6.00;99.90;;;;;;5046238;28;20499;-69
2023/01/31 10:33:42;;;;;;;52.83;9.60;;;6.10;99.90;;;;;;5047864;28;20580;-69
2023/01/31 10:36:21;;;;;;;57.72;9.50;;;6.10;99.90;;;;;;5047043;28;20031;-68
2023/01/31 10:39:24;;;;;;;57.05;11.38;;;6.10;99.90;;;;;;5039577;28;20026;-69
2023/01/31 10:42:22;;;;;;;65.77;11.67;;;6.10;99.90;;;;;;5009212;28;20400;-69
2023/01/31 10:44:52;;;;;;;72.68;9.70;;;6.10;99.90;;;;;;5040533;28;20056;-69
2023/01/31 10:47:20;;;;;;;65.22;11.52;;;6.10;99.90;;;;;;5047146;28;20112;-69
2023/01/31 10:49:48;;;;;;;74.53;12.00;;;6.10;99.90;;;;;;5050547;28;20017;-70
2023/01/31 10:52:35;;;;;;;62.63;10.95;;;6.10;99.90;;;;;;5047393;28;20021;-70
2023/01/31 10:55:28;;;;;;;62.97;10.30;;;6.10;99.90;;;;;;5048712;28;20094;-69
2023/01/31 10:57:55;;;;;;;92.45;29.27;;;6.20;99.90;;;;;;5047292;28;20032;-69
2023/01/31 11:00:29;;;;;;;83.28;18.77;;;6.20;99.90;;;;;;5047613;28;20024;-70
2023/01/31 11:02:56;;;;;;;83.10;17.95;;;6.20;99.90;;;;;;5047482;28;20421;-68
2023/01/31 11:05:25;;;;;;;92.93;14.43;;;6.20;99.90;;;;;;5050504;28;20025;-69
2023/01/31 11:07:50;;;;;;;80.55;15.13;;;6.20;99.90;;;;;;5043044;28;20120;-70
2023/01/31 11:10:48;;;;;;;80.45;13.75;;;6.30;99.90;;;;;;5049699;28;20448;-70
2023/01/31 11:13:18;;;;;;;84.70;19.55;;;6.30;99.90;;;;;;5046628;28;20120;-69
2023/01/31 11:15:43;;;;;;;77.78;13.50;;;6.40;99.90;;;;;;5046997;28;20063;-70
2023/01/31 11:18:16;;;;;;;76.18;13.20;;;6.40;99.90;;;;;;5046432;28;20395;-69
2023/01/31 11:20:46;;;;;;;54.78;12.88;;;6.40;99.90;;;;;;5046185;28;20391;-70
2023/01/31 11:23:15;;;;;;;70.63;13.05;;;6.40;99.90;;;;;;5049225;28;20487;-70
2023/01/31 11:25:48;;;;;;;78.45;13.95;;;6.40;99.90;;;;;;5043209;28;20028;-70
2023/01/31 11:28:36;;;;;;;64.38;13.63;;;6.40;99.90;;;;;;5052695;28;20078;-70
2023/01/31 11:31:05;;;;;;;63.30;12.77;;;6.40;99.90;;;;;;5046420;28;20115;-69
2023/01/31 11:33:46;;;;;;;61.53;10.10;;;6.40;99.90;;;;;;5046565;28;20032;-69
2023/01/31 11:36:21;;;;;;;68.80;11.93;;;6.40;99.90;;;;;;5046397;28;20024;-71
2023/01/31 11:38:48;;;;;;;70.95;12.63;;;6.40;99.90;;;;;;5041792;28;20033;-70
2023/01/31 11:41:34;;;;;;;96.90;12.60;;;6.40;99.90;;;;;;5048100;28;20097;-71
2023/01/31 11:44:17;;;;;;;124.20;15.07;;;6.40;99.90;;;;;;5046479;28;20037;-71
2023/01/31 11:46:47;;;;;;;132.07;16.30;;;6.40;99.90;;;;;;5056868;28;20538;-72
2023/01/31 11:49:37;;;;;;;118.53;19.17;;;6.50;99.90;;;;;;5051236;28;20028;-71
2023/01/31 11:52:16;;;;;;;128.55;19.27;;;6.50;99.90;;;;;;5047558;28;20033;-71
2023/01/31 11:54:46;;;;;;;120.22;23.67;;;6.50;99.90;;;;;;5045281;28;20028;-72
2023/01/31 11:57:15;;;;;;;147.90;20.80;;;6.60;99.90;;;;;;5050485;28;20036;-71
2023/01/31 11:59:40;;;;;;;115.05;16.48;;;6.60;99.90;;;;;;5052864;28;20403;-71
2023/01/31 12:02:37;;;;;;;98.10;15.75;;;6.60;99.90;;;;;;5051654;28;20040;-70
2023/01/31 12:05:15;;;;;;;118.32;15.73;;;6.70;99.90;;;;;;5048257;28;20045;-70
2023/01/31 12:07:52;;;;;;;104.57;17.13;;;6.60;99.90;;;;;;5056638;28;20013;-71
2023/01/31 12:10:29;;;;;;;137.90;18.63;;;6.70;99.90;;;;;;5056900;28;20413;-71
2023/01/31 12:12:58;;;;;;;139.93;21.42;;;6.70;99.90;;;;;;5056844;28;20032;-71
2023/01/31 12:15:25;;;;;;;115.03;17.67;;;6.70;99.90;;;;;;5056967;28;20058;-71
2023/01/31 12:17:50;;;;;;;118.95;19.60;;;6.70;99.90;;;;;;5057080;28;20104;-71
2023/01/31 12:20:30;;;;;;;118.47;19.80;;;6.70;99.90;;;;;;5056885;28;20056;-71
2023/01/31 12:23:10;;;;;;;116.72;17.77;;;6.80;99.90;;;;;;5056602;28;20029;-71
2023/01/31 12:25:59;;;;;;;110.55;15.77;;;6.80;99.90;;;;;;5056700;28;20037;-71
2023/01/31 12:28:41;;;;;;;118.85;14.57;;;6.90;99.90;;;;;;5044558;28;20028;-71
2023/01/31 12:31:18;;;;;;;129.07;17.25;;;6.90;99.90;;;;;;5056476;28;20021;-71
2023/01/31 12:34:28;;;;;;;127.38;22.42;;;6.90;99.90;;;;;;5056551;28;20407;-71
2023/01/31 12:37:26;;;;;;;114.88;14.50;;;7.00;99.90;;;;;;5026511;28;20044;-71
2023/01/31 12:40:21;;;;;;;114.65;16.38;;;7.00;99.90;;;;;;5036712;28;20083;-71
2023/01/31 12:43:02;;;;;;;112.85;14.50;;;7.10;99.90;;;;;;5041784;28;20383;-71
2023/01/31 12:45:48;;;;;;;108.50;14.25;;;7.10;99.90;;;;;;5056578;28;20082;-71
2023/01/31 12:48:29;;;;;;;115.43;12.65;;;7.20;99.90;;;;;;5056329;28;20063;-72
2023/01/31 12:51:02;;;;;;;90.55;13.20;;;7.20;99.90;;;;;;5054991;28;20517;-71
2023/01/31 12:54:16;;;;;;;86.78;14.88;;;7.30;99.90;;;;;;5056236;28;20481;-71
2023/01/31 12:57:16;;;;;;;88.97;12.30;;;7.40;99.90;;;;;;5056370;28;20021;-71
2023/01/31 13:00:13;;;;;;;93.45;14.75;;;7.50;99.90;;;;;;5056158;28;20122;-71
2023/01/31 13:02:53;;;;;;;82.32;11.77;;;7.60;99.90;;;;;;5036250;28;20022;-72
2023/01/31 13:05:44;;;;;;;68.63;11.68;;;7.60;99.90;;;;;;5035879;28;20091;-71
2023/01/31 13:08:31;;;;;;;85.20;10.18;;;7.50;99.90;;;;;;5036204;28;20375;-72
2023/01/31 13:11:23;;;;;;;86.65;12.45;;;7.50;99.90;;;;;;5053004;28;20028;-72
2023/01/31 13:13:55;;;;;;;86.43;14.27;;;7.50;99.90;;;;;;5051676;28;20045;-72
2023/01/31 13:16:35;;;;;;;89.47;11.23;;;7.40;99.90;;;;;;5055817;28;20021;-71
2023/01/31 13:19:05;;;;;;;80.40;12.57;;;7.40;99.90;;;;;;5055693;28;20033;-72